Time;durP1;ratioP1;P1;durP2;ratioP2;P2;SDS_P1;SDS_P2;PMS_P1;PMS_P2;Temp;Humidity;BMP_temperature;BMP_pressure;BME280_temperature;BME280_humidity;BME280_pressure;Samples;Min_cycle;Max_cycle;Signal;HPM_P1;HPM_P2
2021/06/19 00:00:33;;;;;;;12.60;5.78;;;27.60;99.90;;;;;;1788061;78;21253;-81
2021/06/19 00:03:01;;;;;;;12.78;6.28;;;27.60;99.90;;;;;;1788605;78;21782;-80
2021/06/19 00:05:29;;;;;;;12.90;5.50;;;27.50;99.90;;;;;;1790292;80;21183;-83
2021/06/19 00:07:57;;;;;;;11.12;5.25;;;27.40;99.90;;;;;;1785524;78;21102;-83
2021/06/19 00:10:24;;;;;;;10.18;5.55;;;27.40;99.90;;;;;;1788174;78;21149;-84
2021/06/19 00:12:52;;;;;;;11.53;5.62;;;27.40;99.90;;;;;;1787938;78;21252;-87
2021/06/19 00:15:22;;;;;;;114.50;97.53;;;27.30;99.90;;;;;;1788659;78;21078;-85
2021/06/19 00:17:50;;;;;;;13.20;7.92;;;27.20;99.90;;;;;;1789948;80;21119;-83
2021/06/19 00:20:23;;;;;;;22.67;15.05;;;27.20;99.90;;;;;;1790998;78;21111;-81
2021/06/19 00:22:50;;;;;;;10.08;6.60;;;27.20;99.90;;;;;;1789077;78;21153;-84
2021/06/19 00:25:20;;;;;;;12.45;5.80;;;27.20;99.90;;;;;;1789823;78;21640;-84
2021/06/19 00:27:48;;;;;;;13.05;6.05;;;27.10;99.90;;;;;;1790285;78;21583;-82
2021/06/19 00:30:17;;;;;;;10.85;6.17;;;27.10;99.90;;;;;;1786186;80;21098;-79
2021/06/19 00:32:45;;;;;;;11.83;6.22;;;27.10;99.90;;;;;;1787887;78;21227;-83
2021/06/19 00:35:14;;;;;;;16.32;6.78;;;27.10;99.90;;;;;;1787688;78;21141;-83
2021/06/19 00:37:42;;;;;;;14.05;6.33;;;27.00;99.90;;;;;;1787959;78;21611;-82
2021/06/19 00:40:12;;;;;;;9.78;6.45;;;27.00;99.90;;;;;;1789082;78;21126;-81
2021/06/19 00:42:40;;;;;;;10.70;7.53;;;27.10;99.90;;;;;;1787033;78;21149;-82
2021/06/19 00:45:08;;;;;;;12.95;6.78;;;27.10;99.90;;;;;;1789050;78;21249;-84
2021/06/19 00:47:39;;;;;;;12.70;6.03;;;27.00;99.90;;;;;;1789585;78;21188;-77
2021/06/19 00:50:08;;;;;;;11.97;5.80;;;27.00;99.90;;;;;;1789368;78;21114;-83
2021/06/19 00:52:36;;;;;;;10.38;5.15;;;27.00;99.90;;;;;;1790979;78;21129;-84
2021/06/19 00:55:05;;;;;;;10.55;5.15;;;26.90;99.90;;;;;;1787754;78;21137;-81
2021/06/19 00:57:34;;;;;;;7.78;5.33;;;26.90;99.90;;;;;;1783890;80;21121;-80
2021/06/19 01:00:02;;;;;;;9.25;4.70;;;26.90;99.90;;;;;;1784130;78;21113;-84
2021/06/19 01:02:31;;;;;;;7.90;5.15;;;26.90;99.90;;;;;;1787009;78;21121;-80
2021/06/19 01:04:58;;;;;;;10.32;5.10;;;26.90;99.90;;;;;;1788947;80;21109;-79
2021/06/19 01:07:27;;;;;;;9.35;5.40;;;26.90;99.90;;;;;;1788245;78;21081;-80
2021/06/19 01:09:55;;;;;;;11.33;6.37;;;26.90;99.90;;;;;;1790891;79;21106;-80
2021/06/19 01:12:23;;;;;;;18.30;11.48;;;26.80;99.90;;;;;;1766542;78;21124;-79
2021/06/19 01:14:52;;;;;;;9.38;5.00;;;26.80;99.90;;;;;;1786731;78;21222;-80
2021/06/19 01:17:21;;;;;;;7.87;4.40;;;26.80;99.90;;;;;;1784670;78;21112;-81
2021/06/19 01:20:10;;;;;;;9.68;4.58;;;26.80;99.90;;;;;;1789385;78;21159;-78
2021/06/19 01:22:40;;;;;;;9.68;4.47;;;26.70;99.90;;;;;;1789869;78;21536;-76
2021/06/19 01:25:10;;;;;;;8.40;4.58;;;26.70;99.90;;;;;;1787022;78;21126;-81
2021/06/19 01:27:38;;;;;;;8.53;4.95;;;26.70;99.90;;;;;;1785645;78;21144;-79
2021/06/19 01:30:09;;;;;;;10.23;5.80;;;26.70;99.90;;;;;;1785755;78;21133;-80
2021/06/19 01:32:39;;;;;;;7.85;5.12;;;26.70;99.90;;;;;;1789712;78;21207;-78
2021/06/19 01:35:09;;;;;;;7.80;4.92;;;26.60;99.90;;;;;;1789385;78;21091;-88
2021/06/19 01:37:39;;;;;;;11.78;4.50;;;26.60;99.90;;;;;;1792654;78;21093;-85
2021/06/19 01:40:12;;;;;;;13.08;4.55;;;26.60;99.90;;;;;;1792624;78;21186;-89
2021/06/19 01:42:46;;;;;;;12.33;5.37;;;26.60;99.90;;;;;;1826177;77;21117;-89
2021/06/19 01:45:16;;;;;;;15.83;5.05;;;26.60;99.90;;;;;;1797884;78;21694;-83
2021/06/19 01:47:44;;;;;;;9.10;4.50;;;26.50;99.90;;;;;;1786414;78;21128;-83
2021/06/19 01:50:14;;;;;;;8.15;5.05;;;26.60;99.90;;;;;;1762671;78;21521;-77
2021/06/19 01:52:42;;;;;;;10.03;4.62;;;26.50;99.90;;;;;;1786712;78;21077;-80
2021/06/19 01:55:10;;;;;;;9.53;5.10;;;26.50;99.90;;;;;;1788146;78;21035;-80
2021/06/19 01:57:38;;;;;;;12.15;5.45;;;26.40;99.90;;;;;;1790007;79;21116;-80
2021/06/19 02:00:09;;;;;;;8.80;4.65;;;26.40;99.90;;;;;;1790603;80;21136;-81
2021/06/19 02:02:38;;;;;;;9.58;4.90;;;26.40;99.90;;;;;;1790474;79;21114;-80
2021/06/19 02:05:10;;;;;;;13.15;5.37;;;26.30;99.90;;;;;;1789961;80;21191;-81
2021/06/19 02:07:55;;;;;;;7.47;4.85;;;26.30;99.90;;;;;;1795987;79;21088;-81
2021/06/19 02:10:29;;;;;;;7.85;4.97;;;26.30;99.90;;;;;;1806800;79;22174;-81
2021/06/19 02:12:57;;;;;;;8.18;5.30;;;26.20;99.90;;;;;;1802894;78;21145;-81
2021/06/19 02:15:25;;;;;;;10.98;5.90;;;26.10;99.90;;;;;;1790194;80;21537;-81
2021/06/19 02:17:55;;;;;;;13.20;5.58;;;26.10;99.90;;;;;;1790335;80;21164;-82
2021/06/19 02:20:24;;;;;;;11.68;5.40;;;26.00;99.90;;;;;;1790303;80;21623;-81
2021/06/19 02:22:51;;;;;;;8.33;5.33;;;26.00;99.90;;;;;;1794025;78;21234;-81
2021/06/19 02:25:23;;;;;;;10.72;5.17;;;25.90;99.90;;;;;;1791342;78;21129;-81
2021/06/19 02:28:05;;;;;;;11.15;5.95;;;25.90;99.90;;;;;;1787000;78;21121;-81
2021/06/19 02:30:40;;;;;;;8.25;5.45;;;25.90;99.90;;;;;;1784878;78;21136;-81
2021/06/19 02:33:08;;;;;;;8.00;5.08;;;25.80;99.90;;;;;;1788310;78;21160;-80
2021/06/19 02:35:39;;;;;;;9.48;5.08;;;25.80;99.90;;;;;;1790327;80;21094;-82
2021/06/19 02:38:06;;;;;;;12.60;5.42;;;25.80;99.90;;;;;;1789883;78;21500;-81
2021/06/19 02:40:35;;;;;;;9.63;5.65;;;25.70;99.90;;;;;;1787497;78;22083;-81
2021/06/19 02:43:03;;;;;;;7.95;5.22;;;25.70;99.90;;;;;;1784755;78;21203;-80
2021/06/19 02:45:31;;;;;;;9.25;5.60;;;25.70;99.90;;;;;;1787336;78;21101;-81
2021/06/19 02:48:00;;;;;;;9.38;5.78;;;25.70;99.90;;;;;;1787224;78;21098;-80
2021/06/19 02:50:32;;;;;;;11.15;5.40;;;25.70;99.90;;;;;;1787618;78;21081;-81
2021/06/19 02:53:01;;;;;;;10.00;5.67;;;25.60;99.90;;;;;;1787686;78;21101;-80
2021/06/19 02:55:32;;;;;;;10.82;5.85;;;25.60;99.90;;;;;;1786006;78;21130;-79
2021/06/19 02:58:00;;;;;;;8.70;5.80;;;25.60;99.90;;;;;;1787392;78;22060;-80
2021/06/19 03:00:28;;;;;;;9.30;5.80;;;25.50;99.90;;;;;;1788281;78;21161;-80
2021/06/19 03:02:56;;;;;;;10.98;5.90;;;25.50;99.90;;;;;;1762443;80;21110;-81
2021/06/19 03:05:26;;;;;;;10.10;6.20;;;25.50;99.90;;;;;;1781174;79;21097;-82
2021/06/19 03:07:55;;;;;;;8.70;5.90;;;25.50;99.90;;;;;;1789034;78;21149;-81
2021/06/19 03:10:28;;;;;;;10.93;5.80;;;25.60;99.90;;;;;;1785327;78;21128;-81
2021/06/19 03:12:56;;;;;;;9.33;5.37;;;25.50;99.90;;;;;;1810820;77;21152;-81
2021/06/19 03:15:23;;;;;;;10.25;6.00;;;25.50;99.90;;;;;;1791007;79;21182;-80
2021/06/19 03:17:51;;;;;;;14.23;6.45;;;25.50;99.90;;;;;;1789524;78;21109;-80
2021/06/19 03:20:20;;;;;;;12.25;7.42;;;25.40;99.90;;;;;;1784381;78;21507;-80
2021/06/19 03:22:59;;;;;;;10.30;7.40;;;25.50;99.90;;;;;;1783841;78;21234;-80
2021/06/19 03:25:29;;;;;;;12.53;7.30;;;25.50;99.90;;;;;;1784495;78;21663;-80
2021/06/19 03:27:58;;;;;;;15.23;8.10;;;25.50;99.90;;;;;;1784196;78;21133;-81
2021/06/19 03:30:27;;;;;;;13.93;8.73;;;25.50;99.90;;;;;;1789607;78;21121;-80
2021/06/19 03:32:55;;;;;;;13.18;9.68;;;25.50;99.90;;;;;;1782824;78;21169;-80
2021/06/19 03:35:23;;;;;;;13.88;10.20;;;25.50;99.90;;;;;;1790606;79;21171;-80
2021/06/19 03:37:52;;;;;;;15.10;9.80;;;25.50;99.90;;;;;;1790231;80;21123;-79
2021/06/19 03:40:21;;;;;;;19.10;11.12;;;25.60;99.90;;;;;;1790679;80;21095;-81
2021/06/19 03:42:52;;;;;;;15.38;10.78;;;25.60;99.90;;;;;;1788155;78;21092;-81
2021/06/19 03:45:22;;;;;;;13.05;9.33;;;25.60;99.90;;;;;;1762946;81;21173;-82
2021/06/19 03:47:49;;;;;;;18.45;10.60;;;25.60;99.90;;;;;;1776467;78;21102;-81
2021/06/19 03:50:22;;;;;;;17.82;10.32;;;25.60;99.90;;;;;;1789934;80;21196;-81
2021/06/19 03:52:49;;;;;;;18.32;12.70;;;25.70;99.90;;;;;;1806035;78;21143;-80
2021/06/19 03:55:17;;;;;;;25.08;15.18;;;25.60;99.90;;;;;;1792802;78;21575;-80
2021/06/19 03:57:44;;;;;;;19.20;15.03;;;25.60;99.90;;;;;;1791434;78;21066;-81
2021/06/19 04:00:15;;;;;;;25.10;16.10;;;25.60;99.90;;;;;;1793292;80;21074;-80
2021/06/19 04:02:43;;;;;;;24.50;17.65;;;25.60;99.90;;;;;;1789680;78;21050;-80
2021/06/19 04:05:12;;;;;;;22.32;18.07;;;25.60;99.90;;;;;;1792209;78;21133;-81
2021/06/19 04:07:40;;;;;;;24.23;18.10;;;25.70;99.90;;;;;;1792497;80;21560;-80
2021/06/19 04:10:09;;;;;;;27.50;19.05;;;25.80;99.90;;;;;;1791393;79;21105;-81
2021/06/19 04:12:37;;;;;;;28.50;20.45;;;25.70;99.90;;;;;;1788342;78;21617;-80
2021/06/19 04:15:07;;;;;;;25.08;20.27;;;25.70;99.90;;;;;;1785529;78;21481;-82
2021/06/19 04:17:35;;;;;;;27.52;20.30;;;25.60;99.90;;;;;;1787827;78;21555;-81
2021/06/19 04:20:06;;;;;;;25.72;20.43;;;25.60;99.90;;;;;;1784375;78;21165;-79
2021/06/19 04:22:33;;;;;;;25.05;20.12;;;25.70;99.90;;;;;;1788702;78;22297;-80
2021/06/19 04:25:01;;;;;;;25.27;20.80;;;25.70;99.90;;;;;;1785349;78;21500;-82
2021/06/19 04:27:29;;;;;;;25.90;20.55;;;25.70;99.90;;;;;;1791508;78;21147;-79
2021/06/19 04:29:56;;;;;;;24.40;20.25;;;25.80;99.90;;;;;;1784377;78;21108;-80
2021/06/19 04:32:24;;;;;;;26.10;19.67;;;25.80;99.90;;;;;;1783863;78;21238;-80
2021/06/19 04:34:51;;;;;;;31.17;21.40;;;25.80;99.90;;;;;;1790134;79;21101;-80
2021/06/19 04:37:19;;;;;;;27.10;18.15;;;25.80;99.90;;;;;;1790085;80;21097;-80
2021/06/19 04:40:06;;;;;;;25.15;17.90;;;25.80;99.90;;;;;;1789104;78;21092;-81
2021/06/19 04:42:26;;;;;;;20.72;15.23;;;25.80;99.90;;;;;;1783501;78;21139;-80
2021/06/19 04:47:25;;;;;;;26.45;15.90;;;25.90;99.90;;;;;;1784139;78;21630;-80
2021/06/19 04:49:54;;;;;;;25.40;15.93;;;25.90;99.90;;;;;;1784060;78;21239;-79
2021/06/19 04:52:23;;;;;;;26.23;15.95;;;25.90;99.90;;;;;;1788255;78;21112;-80
2021/06/19 04:54:53;;;;;;;22.90;14.30;;;25.80;99.90;;;;;;1785844;78;21660;-80
2021/06/19 04:57:21;;;;;;;21.90;13.93;;;25.90;99.90;;;;;;1788161;78;21199;-78
2021/06/19 04:59:49;;;;;;;20.50;12.78;;;25.90;99.90;;;;;;1761832;78;21109;-80
2021/06/19 05:02:16;;;;;;;15.63;12.35;;;25.90;99.90;;;;;;1786438;78;21161;-79
2021/06/19 05:04:44;;;;;;;20.65;12.33;;;26.00;99.90;;;;;;1790153;79;21172;-80
2021/06/19 05:07:12;;;;;;;18.37;11.80;;;26.00;99.90;;;;;;1789986;80;21216;-80
2021/06/19 05:09:41;;;;;;;19.48;11.83;;;26.10;99.90;;;;;;1787990;78;22378;-79
2021/06/19 05:12:09;;;;;;;16.27;10.85;;;26.20;99.90;;;;;;1789974;80;21122;-80
2021/06/19 05:14:37;;;;;;;27.35;10.98;;;26.20;99.90;;;;;;1786649;78;21698;-79
2021/06/19 05:17:04;;;;;;;14.93;9.70;;;26.20;99.90;;;;;;1784027;78;21136;-82
2021/06/19 05:19:33;;;;;;;17.65;9.35;;;26.30;99.90;;;;;;1792789;79;21089;-79
2021/06/19 05:22:00;;;;;;;17.27;9.03;;;26.30;99.90;;;;;;1791012;78;21136;-80
2021/06/19 05:24:28;;;;;;;16.77;8.13;;;26.30;99.90;;;;;;1784127;78;21238;-80
2021/06/19 05:26:55;;;;;;;16.07;8.50;;;26.30;99.90;;;;;;1787481;78;21268;-79
2021/06/19 05:29:23;;;;;;;13.68;7.95;;;26.30;99.90;;;;;;1789639;78;21595;-79
2021/06/19 05:31:50;;;;;;;11.05;6.90;;;26.40;99.90;;;;;;1785626;78;21218;-79
2021/06/19 05:34:18;;;;;;;12.45;6.33;;;26.50;99.90;;;;;;1787414;78;21150;-79
2021/06/19 05:36:45;;;;;;;12.82;6.30;;;26.50;99.90;;;;;;1791559;79;21195;-80
2021/06/19 05:39:13;;;;;;;12.20;5.70;;;26.60;99.90;;;;;;1790633;78;21138;-83
2021/06/19 05:41:40;;;;;;;11.15;5.00;;;26.70;99.90;;;;;;1784704;78;21100;-82
2021/06/19 05:44:08;;;;;;;9.85;5.67;;;26.80;99.90;;;;;;1790123;78;21227;-79
2021/06/19 05:46:37;;;;;;;8.75;5.10;;;26.70;99.90;;;;;;1786196;78;21150;-79
2021/06/19 05:49:06;;;;;;;9.55;5.12;;;26.80;99.90;;;;;;1784480;78;21215;-79
2021/06/19 05:51:34;;;;;;;12.73;5.35;;;26.80;99.90;;;;;;1786001;78;21163;-78
2021/06/19 05:54:03;;;;;;;11.55;4.95;;;26.70;99.90;;;;;;1786406;78;21069;-79
2021/06/19 05:56:34;;;;;;;7.50;4.83;;;26.70;99.90;;;;;;1802874;78;21218;-79
2021/06/19 05:59:01;;;;;;;8.83;4.37;;;26.80;99.90;;;;;;1786686;78;21202;-77
2021/06/19 06:01:33;;;;;;;9.28;5.10;;;26.80;99.90;;;;;;1785264;78;21173;-77
2021/06/19 06:03:59;;;;;;;6.90;4.40;;;26.80;99.90;;;;;;1787612;78;21564;-77
2021/06/19 06:06:27;;;;;;;6.92;4.10;;;26.70;99.90;;;;;;1792152;80;21203;-78
2021/06/19 06:08:55;;;;;;;9.85;4.15;;;26.80;99.90;;;;;;1787792;78;21202;-78
2021/06/19 06:11:23;;;;;;;7.42;4.40;;;26.80;99.90;;;;;;1785249;78;21232;-78
2021/06/19 06:13:50;;;;;;;7.53;4.50;;;26.80;99.90;;;;;;1785341;78;21706;-78
2021/06/19 06:16:18;;;;;;;8.58;4.08;;;26.90;99.90;;;;;;1787758;78;21129;-79
2021/06/19 06:18:45;;;;;;;9.73;4.83;;;26.90;99.90;;;;;;1786268;78;21157;-84
2021/06/19 06:21:13;;;;;;;7.45;4.62;;;26.80;99.90;;;;;;1784930;78;21652;-84
2021/06/19 06:23:40;;;;;;;8.80;5.50;;;26.80;99.90;;;;;;1784175;78;21120;-85
2021/06/19 06:26:08;;;;;;;15.08;4.60;;;26.80;99.90;;;;;;1783383;80;21141;-85
2021/06/19 06:28:38;;;;;;;9.70;4.47;;;26.80;99.90;;;;;;1787177;78;21132;-84
2021/06/19 06:31:04;;;;;;;7.08;3.87;;;26.90;99.90;;;;;;1789643;80;21145;-84
2021/06/19 06:33:32;;;;;;;9.23;4.40;;;26.80;99.90;;;;;;1785304;78;21126;-85
2021/06/19 06:35:59;;;;;;;8.13;3.45;;;26.80;99.90;;;;;;1789873;80;21137;-84
2021/06/19 06:38:27;;;;;;;5.60;3.05;;;26.70;99.90;;;;;;1790191;80;21139;-85
2021/06/19 06:40:54;;;;;;;8.20;2.72;;;26.70;99.90;;;;;;1794244;78;21214;-85
2021/06/19 06:43:22;;;;;;;7.20;2.60;;;26.70;99.90;;;;;;1784356;79;21242;-83
2021/06/19 06:45:49;;;;;;;7.10;3.12;;;26.80;99.90;;;;;;1784345;78;21093;-82
2021/06/19 06:48:17;;;;;;;6.05;2.90;;;26.90;99.90;;;;;;1720474;83;21215;-82
2021/06/19 06:50:44;;;;;;;5.37;2.90;;;27.00;99.90;;;;;;1734537;80;21709;-83
2021/06/19 06:53:12;;;;;;;6.58;2.75;;;26.90;99.90;;;;;;1783350;79;21152;-82
2021/06/19 06:55:40;;;;;;;6.78;2.83;;;26.90;99.90;;;;;;1766147;80;21122;-83
2021/06/19 06:58:07;;;;;;;4.37;2.40;;;26.90;99.90;;;;;;1775261;79;21137;-83
2021/06/19 07:00:35;;;;;;;8.78;2.45;;;26.80;99.90;;;;;;1774212;79;21129;-79
2021/06/19 07:03:02;;;;;;;7.25;2.37;;;26.80;99.90;;;;;;1773072;79;21117;-79
2021/06/19 07:05:30;;;;;;;7.42;2.47;;;26.70;99.90;;;;;;1778486;80;21216;-78
2021/06/19 07:07:57;;;;;;;5.15;2.40;;;26.70;99.90;;;;;;1759496;80;21679;-77
2021/06/19 07:10:25;;;;;;;4.25;2.67;;;26.70;99.90;;;;;;1769002;79;21149;-78
2021/06/19 07:12:52;;;;;;;7.33;2.62;;;26.90;99.90;;;;;;1778761;79;21488;-79
2021/06/19 07:15:20;;;;;;;11.08;3.00;;;26.90;99.90;;;;;;1785179;79;21117;-78
2021/06/19 07:17:49;;;;;;;3.65;2.45;;;26.90;99.90;;;;;;1776635;79;21166;-78
2021/06/19 07:20:18;;;;;;;5.85;2.67;;;26.90;99.90;;;;;;1777493;79;21213;-78
2021/06/19 07:22:46;;;;;;;6.25;2.70;;;27.00;99.90;;;;;;1773386;79;21207;-78
2021/06/19 07:25:14;;;;;;;10.78;2.87;;;27.10;99.90;;;;;;1771242;79;21236;-78
2021/06/19 07:27:42;;;;;;;6.08;2.77;;;27.10;99.90;;;;;;1777501;79;21242;-79
2021/06/19 07:30:11;;;;;;;7.50;2.52;;;27.10;99.90;;;;;;1776957;79;21602;-79
2021/06/19 07:32:39;;;;;;;7.50;2.35;;;27.20;99.90;;;;;;1774636;79;21148;-77
2021/06/19 07:35:08;;;;;;;5.17;2.45;;;27.20;99.90;;;;;;1776365;79;21161;-77
2021/06/19 07:37:36;;;;;;;3.95;2.10;;;27.20;99.90;;;;;;1770290;80;21163;-75
2021/06/19 07:40:04;;;;;;;5.83;2.55;;;27.10;99.90;;;;;;1771611;80;21123;-75
2021/06/19 07:42:32;;;;;;;6.85;3.00;;;26.90;99.90;;;;;;1775273;79;21082;-76
2021/06/19 07:45:00;;;;;;;5.87;2.50;;;27.00;99.90;;;;;;1767318;79;21118;-76
2021/06/19 07:47:27;;;;;;;5.10;2.15;;;27.00;99.90;;;;;;1755883;79;21135;-77
2021/06/19 07:49:55;;;;;;;6.53;2.22;;;26.90;99.90;;;;;;1774016;80;21552;-81
2021/06/19 07:52:22;;;;;;;6.28;2.77;;;27.00;99.90;;;;;;1777708;79;21242;-76
2021/06/19 07:54:50;;;;;;;9.43;2.83;;;27.00;99.90;;;;;;1775579;78;21147;-74
2021/06/19 07:57:17;;;;;;;3.37;2.17;;;26.90;99.90;;;;;;1771383;79;21123;-76
2021/06/19 07:59:45;;;;;;;5.20;2.33;;;27.00;99.90;;;;;;1773480;79;21131;-76
2021/06/19 08:02:12;;;;;;;7.47;2.58;;;27.10;99.90;;;;;;1773722;79;21243;-76
2021/06/19 08:04:40;;;;;;;3.27;2.22;;;27.20;99.90;;;;;;1775176;79;21137;-75
2021/06/19 08:07:07;;;;;;;4.83;2.33;;;27.30;99.90;;;;;;1774174;80;21158;-75
2021/06/19 08:09:35;;;;;;;7.05;2.40;;;27.40;99.90;;;;;;1781919;79;21173;-77
2021/06/19 08:12:03;;;;;;;6.53;3.17;;;27.30;99.90;;;;;;1773225;79;21121;-77
2021/06/19 08:14:30;;;;;;;7.60;2.42;;;27.30;99.90;;;;;;1775747;79;21158;-74
2021/06/19 08:17:03;;;;;;;5.15;2.30;;;27.30;99.90;;;;;;1776882;79;21153;-75
2021/06/19 08:19:27;;;;;;;6.85;2.55;;;27.30;99.90;;;;;;1774499;79;21292;-75
2021/06/19 08:21:54;;;;;;;7.25;2.52;;;27.30;99.90;;;;;;1778359;79;21159;-75
2021/06/19 08:24:22;;;;;;;4.28;2.35;;;27.20;99.90;;;;;;1773822;79;21148;-76
2021/06/19 08:26:54;;;;;;;5.45;2.90;;;27.20;99.90;;;;;;1775495;79;21381;-77
2021/06/19 08:29:22;;;;;;;7.03;2.42;;;27.20;99.90;;;;;;1776969;79;21616;-78
2021/06/19 08:31:51;;;;;;;5.50;2.30;;;27.20;99.90;;;;;;1772815;79;21221;-78
2021/06/19 08:34:19;;;;;;;4.40;2.00;;;27.20;99.90;;;;;;1771030;79;21255;-75
2021/06/19 08:36:46;;;;;;;3.60;2.20;;;27.20;99.90;;;;;;1778687;80;21096;-75
2021/06/19 08:39:14;;;;;;;6.25;2.25;;;27.30;99.90;;;;;;1774524;80;21186;-75
2021/06/19 08:41:44;;;;;;;5.42;2.12;;;27.30;99.90;;;;;;1778034;80;21125;-76
2021/06/19 08:44:11;;;;;;;5.30;2.12;;;27.20;99.90;;;;;;1775349;79;21154;-76
2021/06/19 08:46:39;;;;;;;3.58;1.60;;;27.20;99.90;;;;;;1772754;79;21121;-76
2021/06/19 08:49:07;;;;;;;3.30;1.70;;;27.20;99.90;;;;;;1773052;79;21108;-75
2021/06/19 08:51:34;;;;;;;3.37;1.62;;;27.00;99.90;;;;;;1772775;79;21136;-76
2021/06/19 08:54:02;;;;;;;6.62;1.82;;;27.00;99.90;;;;;;1772590;79;21164;-76
2021/06/19 08:56:29;;;;;;;5.58;1.70;;;27.00;99.90;;;;;;1774301;79;21275;-76
2021/06/19 08:58:57;;;;;;;3.17;1.52;;;27.00;99.90;;;;;;1776550;79;21192;-76
2021/06/19 09:01:24;;;;;;;2.87;1.50;;;27.20;99.90;;;;;;1776088;79;21179;-75
2021/06/19 09:03:52;;;;;;;4.67;1.60;;;27.30;99.90;;;;;;1770241;79;21169;-76
2021/06/19 09:06:25;;;;;;;3.00;1.50;;;27.40;99.90;;;;;;1778750;80;21202;-78
2021/06/19 09:09:19;;;;;;;4.80;1.67;;;27.40;99.90;;;;;;1770396;80;21116;-75
2021/06/19 09:11:48;;;;;;;5.80;1.75;;;27.40;99.90;;;;;;1758403;80;21220;-75
2021/06/19 09:14:18;;;;;;;3.77;1.80;;;27.40;99.90;;;;;;1752044;80;21118;-76
2021/06/19 09:17:04;;;;;;;2.65;1.60;;;27.50;99.90;;;;;;1769056;79;21144;-76
2021/06/19 09:19:40;;;;;;;4.47;2.15;;;27.50;99.90;;;;;;1775976;79;21615;-76
2021/06/19 09:22:13;;;;;;;4.00;1.77;;;27.70;99.90;;;;;;1775224;80;21137;-75
2021/06/19 09:24:50;;;;;;;2.83;1.60;;;27.70;99.90;;;;;;1779059;79;21145;-76
2021/06/19 09:27:38;;;;;;;4.75;1.52;;;27.70;99.90;;;;;;1774355;80;21098;-79
2021/06/19 09:30:12;;;;;;;3.80;1.70;;;27.70;99.90;;;;;;1779111;79;21210;-76
2021/06/19 09:32:53;;;;;;;5.92;1.45;;;27.90;99.90;;;;;;1754048;79;21681;-79
2021/06/19 09:35:26;;;;;;;3.12;1.80;;;28.00;99.90;;;;;;1781439;79;21242;-77
2021/06/19 09:38:00;;;;;;;3.45;1.57;;;28.00;99.90;;;;;;1809032;79;21141;-76
2021/06/19 09:40:30;;;;;;;3.45;1.70;;;28.00;99.90;;;;;;1777539;80;21066;-77
2021/06/19 09:43:13;;;;;;;2.35;1.52;;;28.20;99.90;;;;;;1775394;79;21149;-77
2021/06/19 09:45:47;;;;;;;4.30;1.50;;;28.20;99.90;;;;;;1770109;80;21203;-78
2021/06/19 09:48:29;;;;;;;5.58;1.60;;;28.40;99.90;;;;;;1763449;80;21125;-78
2021/06/19 09:51:21;;;;;;;4.42;1.57;;;28.50;99.90;;;;;;1774150;79;21122;-78
2021/06/19 09:53:55;;;;;;;3.58;1.77;;;28.60;99.90;;;;;;1777846;79;21257;-78
2021/06/19 09:56:24;;;;;;;4.67;1.55;;;28.70;99.90;;;;;;1773925;79;21132;-76
2021/06/19 09:58:56;;;;;;;3.90;1.90;;;28.70;99.90;;;;;;1778809;79;21266;-76
2021/06/19 10:01:37;;;;;;;3.92;1.62;;;28.70;99.90;;;;;;1763781;80;21183;-76
2021/06/19 10:04:05;;;;;;;6.22;1.75;;;28.70;99.90;;;;;;1748437;81;21187;-76
2021/06/19 10:06:36;;;;;;;2.72;1.55;;;28.80;99.90;;;;;;1749640;80;21078;-76
2021/06/19 10:09:05;;;;;;;3.35;1.50;;;28.90;99.90;;;;;;1863080;76;21086;-76
2021/06/19 10:11:33;;;;;;;3.90;1.77;;;29.00;99.90;;;;;;1931422;73;21121;-75
2021/06/19 10:14:02;;;;;;;4.08;1.60;;;29.10;99.90;;;;;;1927357;74;21122;-75
2021/06/19 10:16:30;;;;;;;4.83;1.80;;;29.20;99.90;;;;;;1916062;75;21043;-75
2021/06/19 10:18:58;;;;;;;3.40;1.82;;;29.20;99.60;;;;;;1915750;75;20999;-76
2021/06/19 10:21:27;;;;;;;2.40;1.60;;;29.20;99.90;;;;;;1913078;75;21552;-76
2021/06/19 10:24:14;;;;;;;5.78;1.95;;;29.30;99.90;;;;;;1913353;75;21098;-75
2021/06/19 10:26:42;;;;;;;5.05;1.75;;;29.40;99.90;;;;;;1853050;76;21275;-76
2021/06/19 10:29:30;;;;;;;4.42;1.60;;;29.40;99.90;;;;;;1848994;76;21167;-75
2021/06/19 10:31:58;;;;;;;4.30;1.90;;;29.50;99.50;;;;;;1831434;78;21104;-76
2021/06/19 10:34:31;;;;;;;6.45;1.75;;;29.50;99.60;;;;;;1834247;78;21145;-74
2021/06/19 10:37:02;;;;;;;5.08;1.87;;;29.40;98.80;;;;;;1829796;78;21076;-75
2021/06/19 10:39:45;;;;;;;3.92;1.52;;;29.40;99.70;;;;;;1829649;78;21128;-75
2021/06/19 10:42:24;;;;;;;3.72;1.67;;;29.40;97.80;;;;;;1813026;78;21115;-76
2021/06/19 10:44:54;;;;;;;5.30;1.98;;;29.40;97.30;;;;;;1799726;80;21208;-76
2021/06/19 10:47:25;;;;;;;6.15;1.62;;;29.30;98.20;;;;;;1799496;79;21170;-76
2021/06/19 10:49:53;;;;;;;3.77;2.08;;;29.40;98.20;;;;;;1801373;77;21120;-76
2021/06/19 10:52:40;;;;;;;4.90;1.50;;;29.40;98.60;;;;;;1829222;78;21275;-76
2021/06/19 10:55:14;;;;;;;4.55;2.10;;;29.50;97.30;;;;;;1829304;78;21115;-75
2021/06/19 10:57:47;;;;;;;3.20;1.45;;;29.60;98.00;;;;;;1828047;78;21104;-75
2021/06/19 11:00:32;;;;;;;5.25;1.70;;;29.60;97.10;;;;;;1829000;77;21073;-76
2021/06/19 11:03:03;;;;;;;4.12;1.70;;;29.50;97.10;;;;;;1830069;78;21131;-76
2021/06/19 11:05:46;;;;;;;4.53;1.70;;;29.60;97.40;;;;;;1830052;78;21017;-74
2021/06/19 11:08:15;;;;;;;3.20;1.60;;;29.70;97.50;;;;;;1818350;78;21637;-75
2021/06/19 11:10:54;;;;;;;6.28;1.57;;;29.70;97.90;;;;;;1829815;78;21084;-77
2021/06/19 11:13:32;;;;;;;3.92;1.82;;;29.80;98.60;;;;;;1832578;72;21155;-80
2021/06/19 11:16:07;;;;;;;3.65;1.67;;;29.90;97.50;;;;;;1793710;78;21177;-79
2021/06/19 11:18:52;;;;;;;3.92;1.95;;;29.80;96.70;;;;;;1765935;80;21618;-78
2021/06/19 11:21:35;;;;;;;2.02;1.52;;;29.80;97.00;;;;;;1765849;81;21741;-79
2021/06/19 11:24:09;;;;;;;4.87;1.65;;;29.90;96.90;;;;;;1773692;80;21164;-77
2021/06/19 11:26:59;;;;;;;3.52;1.85;;;30.00;96.90;;;;;;1789928;79;21227;-78
2021/06/19 11:29:44;;;;;;;6.05;1.80;;;29.90;96.60;;;;;;1822431;77;21121;-78
2021/06/19 11:32:28;;;;;;;4.83;1.60;;;29.80;96.50;;;;;;1838461;77;21137;-77
2021/06/19 11:35:00;;;;;;;4.40;1.70;;;29.80;96.50;;;;;;1798438;77;21153;-80
2021/06/19 11:37:54;;;;;;;3.08;1.57;;;29.80;96.20;;;;;;1818958;78;21615;-79
2021/06/19 11:40:32;;;;;;;5.00;1.65;;;29.80;96.90;;;;;;1815695;77;21655;-80
2021/06/19 11:43:00;;;;;;;2.47;1.37;;;30.00;96.90;;;;;;1819732;78;21110;-81
2021/06/19 11:45:28;;;;;;;2.60;1.50;;;30.10;98.10;;;;;;1821340;77;21348;-80
2021/06/19 11:48:15;;;;;;;3.22;1.90;;;30.20;96.80;;;;;;1841921;77;21482;-76
2021/06/19 11:50:45;;;;;;;4.05;2.25;;;30.20;96.20;;;;;;1810012;77;21217;-74
2021/06/19 11:53:38;;;;;;;3.70;1.90;;;30.10;95.90;;;;;;1821979;77;21185;-76
2021/06/19 11:56:17;;;;;;;3.45;2.02;;;30.10;95.90;;;;;;1817530;77;21110;-76
2021/06/19 11:58:51;;;;;;;4.40;1.45;;;30.10;95.70;;;;;;1818763;77;21113;-76
2021/06/19 12:01:21;;;;;;;2.47;1.87;;;30.20;95.30;;;;;;1825348;77;21105;-81
2021/06/19 12:03:50;;;;;;;3.42;1.70;;;30.20;96.20;;;;;;1818977;77;21181;-76
2021/06/19 12:06:20;;;;;;;6.72;1.57;;;30.30;95.80;;;;;;1820690;77;21122;-80
2021/06/19 12:08:47;;;;;;;3.33;1.75;;;30.30;95.10;;;;;;1816541;77;21209;-80
2021/06/19 12:11:18;;;;;;;4.78;1.62;;;30.40;95.40;;;;;;1817167;77;21125;-80
2021/06/19 12:13:45;;;;;;;2.25;1.55;;;30.40;95.50;;;;;;1817729;77;21173;-81
2021/06/19 12:16:13;;;;;;;2.20;1.40;;;30.50;96.00;;;;;;1816517;77;21182;-82
2021/06/19 12:18:41;;;;;;;2.62;2.00;;;30.60;96.60;;;;;;1816776;77;21073;-82
2021/06/19 12:21:11;;;;;;;4.72;1.47;;;30.60;95.10;;;;;;1815893;77;21112;-82
2021/06/19 12:23:42;;;;;;;7.60;1.80;;;30.60;95.10;;;;;;1815808;77;21887;-82
2021/06/19 12:26:15;;;;;;;3.83;1.50;;;30.60;95.20;;;;;;1817484;77;21176;-79
2021/06/19 12:28:45;;;;;;;3.10;1.60;;;30.60;95.80;;;;;;1819260;77;21556;-82
2021/06/19 12:31:14;;;;;;;3.08;1.62;;;30.60;96.20;;;;;;1821732;77;21625;-80
2021/06/19 12:33:43;;;;;;;4.70;1.65;;;30.70;97.30;;;;;;1817618;77;21103;-81
2021/06/19 12:36:12;;;;;;;4.20;1.85;;;30.80;97.30;;;;;;1820303;77;21401;-70
2021/06/19 12:38:45;;;;;;;126.78;6.92;;;30.90;95.20;;;;;;1814881;77;21149;-71
2021/06/19 12:41:12;;;;;;;4.08;1.50;;;30.80;92.30;;;;;;1815531;77;21145;-71
2021/06/19 12:43:51;;;;;;;3.83;1.40;;;30.80;92.60;;;;;;1813199;77;21199;-72
2021/06/19 12:46:21;;;;;;;5.87;1.50;;;30.80;93.90;;;;;;1815790;77;21105;-72
2021/06/19 12:48:50;;;;;;;2.87;1.60;;;30.80;92.60;;;;;;1814803;77;21145;-72
2021/06/19 12:51:24;;;;;;;4.05;1.52;;;30.80;92.10;;;;;;1810061;77;21181;-73
2021/06/19 12:53:52;;;;;;;2.15;1.70;;;30.80;92.10;;;;;;1821962;77;21941;-77
2021/06/19 12:56:20;;;;;;;4.08;1.82;;;30.80;92.00;;;;;;1819144;77;22148;-71
2021/06/19 12:58:49;;;;;;;5.90;2.02;;;30.70;93.70;;;;;;1811127;77;21524;-72
2021/06/19 13:01:31;;;;;;;6.35;1.80;;;30.80;92.70;;;;;;1819314;77;21133;-71